Terminal Aerodrome Forecast
Issued by NWS Atlanta, GA

Home | Current Version | Previous Version | Text Only | Print | Product List | Glossary On
Versions: 1 2 3 4 5 6 7 8 9 10 11 12 13 14 15 16 17 18 19 20 21 22 23 24
000
FTUS42 KFFC 310520
TAFCSG
TAF
KCSG 310520Z 3106/0106 08005KT P6SM SCT005 OVC010
      TEMPO 3106/3108 OVC007
     FM310800 08004KT 4SM BR OVC005
     FM311400 09005KT P6SM BKN015
     FM311600 09004KT P6SM BKN025
     FM311800 VRB05KT P6SM SCT040
     FM010000 VRB03KT P6SM SCT045 SCT250=

USA.gov is the U.S. government's official web portal to all federal, state and local government web resources and services.